createdAt,value
2023-02-06T00:01:50.919Z,101943.06
2023-02-06T00:04:19.434Z,101948.16
2023-02-06T00:06:47.805Z,101945.59
2023-02-06T00:09:16.085Z,101951.56
2023-02-06T00:11:44.550Z,101954.09
2023-02-06T00:14:13.009Z,101943.84
2023-02-06T00:16:41.604Z,101958.94
2023-02-06T00:19:10.109Z,101963.22
2023-02-06T00:21:38.216Z,101967.47
2023-02-06T00:24:07.151Z,101965.84
2023-02-06T00:26:35.733Z,101975.22
2023-02-06T00:29:04.193Z,101965.94
2023-02-06T00:31:32.565Z,101970.97
2023-02-06T00:34:01.224Z,101975.81
2023-02-06T00:36:29.789Z,101977.47
2023-02-06T00:38:58.016Z,101969.91
2023-02-06T00:41:26.500Z,101984.19
2023-02-06T00:43:54.820Z,101984.03
2023-02-06T00:46:25.233Z,101991.50
2023-02-06T00:48:53.735Z,101989.78
2023-02-06T00:51:21.983Z,101990.78
2023-02-06T00:53:51.272Z,101973.19
2023-02-06T00:56:20.574Z,101980.25
2023-02-06T00:58:48.833Z,101978.53
2023-02-06T01:01:18.096Z,101980.97
2023-02-06T01:03:47.097Z,101980.56
2023-02-06T01:06:18.182Z,101977.91
2023-02-06T01:08:47.744Z,101981.59
2023-02-06T01:11:20.370Z,101987.44
2023-02-06T01:13:49.426Z,102000.22
2023-02-06T01:16:23.660Z,101983.28
2023-02-06T01:18:55.078Z,101985.84
2023-02-06T01:21:24.792Z,101983.41
2023-02-06T01:23:54.461Z,101973.28
2023-02-06T01:26:26.993Z,101989.28
2023-02-06T01:28:56.183Z,101989.00
2023-02-06T01:31:28.244Z,101988.09
2023-02-06T01:33:58.074Z,101977.88
2023-02-06T01:36:27.300Z,101981.38
2023-02-06T01:38:57.623Z,101968.94
2023-02-06T01:41:25.799Z,101972.47
2023-02-06T01:44:13.249Z,101959.84
2023-02-06T01:46:47.472Z,101970.84
2023-02-06T01:49:24.839Z,101979.31
2023-02-06T01:51:57.945Z,101974.16
2023-02-06T01:54:27.172Z,101970.62
2023-02-06T01:57:01.027Z,101969.75
2023-02-06T01:59:29.965Z,101947.91
2023-02-06T02:01:58.326Z,101952.06
2023-02-06T02:04:31.358Z,101954.16
2023-02-06T02:07:17.869Z,101949.88
2023-02-06T02:09:47.018Z,101942.37
2023-02-06T02:12:15.721Z,101942.37
2023-02-06T02:14:45.889Z,101944.81
2023-02-06T02:17:40.591Z,101944.25
2023-02-06T02:20:20.807Z,101951.87
2023-02-06T02:23:16.490Z,101948.50
2023-02-06T02:26:24.624Z,101946.00
2023-02-06T02:29:12.211Z,101946.13
2023-02-06T02:32:21.294Z,101946.28
2023-02-06T02:35:17.031Z,101955.63
2023-02-06T02:38:00.487Z,101953.19
2023-02-06T02:40:38.198Z,101957.50
2023-02-06T02:43:45.210Z,101949.03
2023-02-06T02:46:16.963Z,101945.63
2023-02-06T02:48:49.019Z,101954.72
2023-02-06T02:51:18.218Z,101960.56
2023-02-06T02:53:46.656Z,101963.94
2023-02-06T02:56:24.193Z,101952.91
2023-02-06T02:59:28.978Z,101962.13
2023-02-06T03:02:08.400Z,101966.38
2023-02-06T03:05:02.407Z,101956.22
2023-02-06T03:07:45.700Z,101968.78
2023-02-06T03:10:43.831Z,101982.16
2023-02-06T03:13:37.409Z,101964.53
2023-02-06T03:16:26.722Z,101969.81
2023-02-06T03:19:12.061Z,101970.66
2023-02-06T03:21:42.941Z,101974.00
2023-02-06T03:24:15.691Z,101974.19
2023-02-06T03:26:45.885Z,101968.31
2023-02-06T03:29:16.744Z,101980.25
2023-02-06T03:31:55.119Z,101975.16
2023-02-06T03:34:35.349Z,101967.53
2023-02-06T03:37:04.279Z,101966.69
2023-02-06T03:39:33.195Z,101963.28
2023-02-06T03:42:03.690Z,101971.56
2023-02-06T03:44:37.414Z,101976.47
2023-02-06T03:47:08.837Z,101977.09
2023-02-06T03:49:41.339Z,101971.91
2023-02-06T03:52:14.010Z,101985.28
2023-02-06T03:54:48.959Z,101982.69
2023-02-06T03:57:19.554Z,101965.19
2023-02-06T03:59:48.374Z,101969.56
2023-02-06T04:02:18.058Z,101978.94
2023-02-06T04:04:46.608Z,101972.16
2023-02-06T04:07:30.596Z,101967.78
2023-02-06T04:09:59.364Z,101964.19
2023-02-06T04:12:27.599Z,101973.66
2023-02-06T04:14:55.825Z,101964.50
2023-02-06T04:17:40.988Z,101964.66
2023-02-06T04:20:13.450Z,101972.44
2023-02-06T04:22:42.832Z,101957.31
2023-02-06T04:25:11.697Z,101971.56
2023-02-06T04:27:39.874Z,101971.91
2023-02-06T04:30:09.463Z,101985.28
2023-02-06T04:32:37.565Z,101975.19
2023-02-06T04:35:05.858Z,101980.19
2023-02-06T04:37:34.508Z,101987.75
2023-02-06T04:40:04.264Z,101986.72
2023-02-06T04:42:32.619Z,101981.50
2023-02-06T04:45:01.041Z,101978.44
2023-02-06T04:47:29.209Z,101977.75
2023-02-06T04:49:57.454Z,101981.31
2023-02-06T04:52:25.951Z,101967.91
2023-02-06T04:54:53.976Z,101964.59
2023-02-06T04:57:22.299Z,101971.22
2023-02-06T04:59:50.732Z,101978.66
2023-02-06T05:02:18.933Z,101986.81
2023-02-06T05:04:47.047Z,101978.41
2023-02-06T05:07:15.483Z,101987.59
2023-02-06T05:09:44.125Z,101980.62
2023-02-06T05:12:14.257Z,101990.78
2023-02-06T05:14:42.820Z,101994.22
2023-02-06T05:17:10.886Z,101984.25
2023-02-06T05:19:39.236Z,101993.63
2023-02-06T05:22:07.668Z,101991.94
2023-02-06T05:24:35.835Z,101993.66
2023-02-06T05:27:04.205Z,101990.16
2023-02-06T05:29:32.771Z,101991.97
2023-02-06T05:32:01.018Z,101998.88
2023-02-06T05:34:29.315Z,101986.16
2023-02-06T05:36:57.735Z,101995.41
2023-02-06T05:39:25.907Z,102006.31
2023-02-06T05:41:54.107Z,102006.34
2023-02-06T05:44:22.405Z,102002.16
2023-02-06T05:46:50.505Z,102004.81
2023-02-06T05:49:18.668Z,102005.78
2023-02-06T05:51:47.056Z,102007.53
2023-02-06T05:54:17.077Z,101994.97
2023-02-06T05:56:45.397Z,102001.03
2023-02-06T05:59:13.904Z,102006.03
2023-02-06T06:01:42.044Z,102016.13
2023-02-06T06:04:10.888Z,102005.91
2023-02-06T06:06:39.239Z,102010.25
2023-02-06T06:09:07.379Z,101994.16
2023-02-06T06:11:35.984Z,102000.16
2023-02-06T06:14:05.172Z,102001.16
2023-02-06T06:16:33.730Z,102004.62
2023-02-06T06:19:02.210Z,101997.81
2023-02-06T06:21:30.803Z,101999.47
2023-02-06T06:23:58.964Z,101996.03
2023-02-06T06:26:27.658Z,101999.50
2023-02-06T06:28:56.845Z,101995.44
2023-02-06T06:31:25.349Z,101997.94
2023-02-06T06:33:54.273Z,101984.44
2023-02-06T06:36:22.878Z,101989.59
2023-02-06T06:38:51.028Z,101992.09
2023-02-06T06:41:19.547Z,101987.06
2023-02-06T06:43:49.064Z,101994.72
2023-02-06T06:46:19.334Z,101998.16
2023-02-06T06:48:48.038Z,101994.88
2023-02-06T06:51:16.274Z,101989.78
2023-02-06T06:53:44.558Z,101991.44
2023-02-06T06:56:14.255Z,101999.13
2023-02-06T06:58:42.846Z,102001.62
2023-02-06T07:01:11.119Z,102006.66
2023-02-06T07:03:39.822Z,102001.62
2023-02-06T07:06:08.389Z,102006.72
2023-02-06T07:08:41.819Z,102006.78
2023-02-06T07:11:14.648Z,102000.88
2023-02-06T07:13:43.448Z,102004.31
2023-02-06T07:16:14.933Z,101998.44
2023-02-06T07:18:43.527Z,102011.19
2023-02-06T07:21:13.785Z,102012.06
2023-02-06T07:23:42.312Z,102019.72
2023-02-06T07:26:10.454Z,102001.94
2023-02-06T07:28:38.885Z,102003.66
2023-02-06T07:31:08.276Z,102004.50
2023-02-06T07:33:36.879Z,102006.22
2023-02-06T07:36:10.476Z,101993.50
2023-02-06T07:38:38.718Z,102007.06
2023-02-06T07:41:07.630Z,102016.41
2023-02-06T07:43:36.646Z,102001.97
2023-02-06T07:46:05.785Z,102007.06
2023-02-06T07:48:34.469Z,102007.06
2023-02-06T07:51:12.083Z,102018.06
2023-02-06T07:53:40.570Z,102008.72
2023-02-06T07:56:14.893Z,102023.19
2023-02-06T07:58:43.515Z,102014.62
2023-02-06T08:01:11.890Z,102017.06
2023-02-06T08:03:40.916Z,102018.62
2023-02-06T08:06:11.234Z,102000.63
2023-02-06T08:08:39.298Z,102009.00
2023-02-06T08:11:09.582Z,102009.72
2023-02-06T08:13:37.943Z,102011.16
2023-02-06T08:16:07.858Z,102001.72
2023-02-06T08:18:37.306Z,101994.78
2023-02-06T08:21:08.169Z,101990.41
2023-02-06T08:23:36.809Z,102000.28
2023-02-06T08:26:09.468Z,101994.97
2023-02-06T08:28:42.147Z,102004.94
2023-02-06T08:31:11.923Z,101999.47
2023-02-06T08:33:41.176Z,101995.91
2023-02-06T08:36:10.762Z,102004.69
2023-02-06T08:38:39.980Z,102008.84
2023-02-06T08:41:27.823Z,102005.72
2023-02-06T08:43:58.536Z,101996.75
2023-02-06T08:46:29.675Z,101992.81
2023-02-06T08:49:00.472Z,102000.44
2023-02-06T08:51:29.095Z,101993.47
2023-02-06T08:53:59.113Z,101987.81
2023-02-06T08:56:28.563Z,101995.69
2023-02-06T08:58:59.686Z,101988.56
2023-02-06T09:01:30.529Z,101984.16
2023-02-06T09:04:02.732Z,101991.72
2023-02-06T09:06:30.830Z,101984.06
2023-02-06T09:08:59.389Z,101983.91
2023-02-06T09:11:28.701Z,101991.34
2023-02-06T09:13:59.200Z,101990.09
2023-02-06T09:16:29.315Z,102002.03
2023-02-06T09:19:01.430Z,102006.28
2023-02-06T09:21:33.000Z,102003.16
2023-02-06T09:24:03.905Z,101995.94
2023-02-06T09:26:44.805Z,102003.44
2023-02-06T09:29:22.092Z,102006.50
2023-02-06T09:31:50.725Z,101989.47
2023-02-06T09:34:19.003Z,101999.37
2023-02-06T09:36:47.170Z,101998.06
2023-02-06T09:39:15.628Z,102000.38
2023-02-06T09:41:47.665Z,102006.84
2023-02-06T09:44:28.270Z,102005.94
2023-02-06T09:47:02.220Z,102001.75
2023-02-06T09:50:03.049Z,102000.16
2023-02-06T09:53:08.912Z,101997.38
2023-02-06T09:55:38.090Z,101981.38
2023-02-06T09:58:06.400Z,101983.97
2023-02-06T10:00:44.667Z,101988.66
2023-02-06T10:03:13.028Z,101982.47
2023-02-06T10:05:50.365Z,101984.25
2023-02-06T10:08:30.557Z,101971.44
2023-02-06T10:11:02.570Z,101973.84
2023-02-06T10:13:36.157Z,101969.94
2023-02-06T10:16:13.564Z,101969.91
2023-02-06T10:18:46.092Z,101958.66
2023-02-06T10:21:45.511Z,101968.38
2023-02-06T10:24:20.333Z,101964.09
2023-02-06T10:26:52.085Z,101964.38
2023-02-06T10:29:32.706Z,101958.72
2023-02-06T10:32:19.796Z,101961.22
2023-02-06T10:35:16.855Z,101955.75
2023-02-06T10:38:15.849Z,101944.31
2023-02-06T10:41:08.876Z,101951.50
2023-02-06T10:44:11.308Z,101940.44
2023-02-06T10:46:48.326Z,101931.25
2023-02-06T10:49:41.147Z,101930.34
2023-02-06T10:52:26.318Z,101928.56
2023-02-06T10:54:58.887Z,101923.06
2023-02-06T10:57:28.901Z,101921.53
2023-02-06T11:00:01.844Z,101914.16
2023-02-06T11:03:06.164Z,101924.84
2023-02-06T11:05:36.927Z,101929.78
2023-02-06T11:08:28.292Z,101909.13
2023-02-06T11:10:57.030Z,101918.56
2023-02-06T11:13:31.552Z,101917.44
2023-02-06T11:16:13.031Z,101921.00
2023-02-06T11:18:45.388Z,101908.88
2023-02-06T11:21:16.033Z,101903.31
2023-02-06T11:23:44.456Z,101901.37
2023-02-06T11:26:22.363Z,101892.97
2023-02-06T11:28:55.732Z,101902.97
2023-02-06T11:31:46.952Z,101900.53
2023-02-06T11:34:36.181Z,101893.69
2023-02-06T11:37:25.793Z,101890.75
2023-02-06T11:39:54.628Z,101883.22
2023-02-06T11:42:28.516Z,101876.00
2023-02-06T11:44:56.891Z,101887.19
2023-02-06T11:47:38.093Z,101870.72
2023-02-06T11:50:23.438Z,101868.09
2023-02-06T11:52:59.433Z,101854.28
2023-02-06T11:55:30.752Z,101861.50
2023-02-06T11:58:22.519Z,101852.91
2023-02-06T12:00:56.636Z,101857.50
2023-02-06T12:03:35.441Z,101857.78
2023-02-06T12:06:10.190Z,101851.59
2023-02-06T12:08:47.067Z,101851.38
2023-02-06T12:11:34.887Z,101837.47
2023-02-06T12:14:10.329Z,101829.16
2023-02-06T12:16:39.774Z,101830.75
2023-02-06T12:19:21.441Z,101834.09
2023-02-06T12:22:02.247Z,101820.37
2023-02-06T12:24:36.524Z,101825.47
2023-02-06T12:27:18.397Z,101823.25
2023-02-06T12:30:09.024Z,101825.78
2023-02-06T12:32:50.177Z,101821.16
2023-02-06T12:35:29.024Z,101805.56
2023-02-06T12:38:05.089Z,101814.25
2023-02-06T12:40:59.043Z,101818.12
2023-02-06T12:43:29.523Z,101817.81
2023-02-06T12:46:08.307Z,101831.56
2023-02-06T12:48:45.902Z,101822.41
2023-02-06T12:51:56.241Z,101819.69
2023-02-06T12:54:30.152Z,101822.78
2023-02-06T12:57:26.538Z,101819.25
2023-02-06T13:00:09.730Z,101815.91
2023-02-06T13:02:51.261Z,101817.88
2023-02-06T13:05:27.943Z,101824.59
2023-02-06T13:08:05.574Z,101815.44
2023-02-06T13:10:34.348Z,101821.34
2023-02-06T13:13:03.612Z,101813.16
2023-02-06T13:15:39.915Z,101818.69
2023-02-06T13:18:56.746Z,101814.31
2023-02-06T13:21:24.854Z,101816.66
2023-02-06T13:24:03.184Z,101819.22
2023-02-06T13:26:51.699Z,101814.88
2023-02-06T13:29:29.114Z,101814.91
2023-02-06T13:32:12.689Z,101811.75
2023-02-06T13:34:46.389Z,101817.59
2023-02-06T13:37:38.237Z,101818.56
2023-02-06T13:40:12.919Z,101822.16
2023-02-06T13:42:56.972Z,101826.03
2023-02-06T13:45:27.909Z,101819.59
2023-02-06T13:48:23.580Z,101818.12
2023-02-06T13:51:20.270Z,101821.78
2023-02-06T13:54:12.556Z,101818.69
2023-02-06T13:57:18.056Z,101818.53
2023-02-06T13:59:54.971Z,101825.84
2023-02-06T14:02:45.056Z,101823.37
2023-02-06T14:05:18.425Z,101832.72
2023-02-06T14:08:04.813Z,101826.87
2023-02-06T14:10:42.487Z,101830.63
2023-02-06T14:13:24.153Z,101839.84
2023-02-06T14:15:55.739Z,101840.84
2023-02-06T14:18:46.764Z,101843.28
2023-02-06T14:21:30.029Z,101853.56
2023-02-06T14:24:07.198Z,101850.34
2023-02-06T14:27:13.814Z,101848.66
2023-02-06T14:30:00.668Z,101845.34
2023-02-06T14:32:38.102Z,101850.69
2023-02-06T14:35:42.934Z,101866.19
2023-02-06T14:38:49.557Z,101855.16
2023-02-06T14:41:18.442Z,101863.81
2023-02-06T14:43:49.121Z,101857.97
2023-02-06T14:46:19.703Z,101852.06
2023-02-06T14:48:51.975Z,101863.94
2023-02-06T14:51:39.305Z,101867.44
2023-02-06T14:54:35.600Z,101870.06
2023-02-06T14:57:13.933Z,101859.84
2023-02-06T15:00:02.355Z,101867.50
2023-02-06T15:02:37.124Z,101864.41
2023-02-06T15:05:06.649Z,101867.87
2023-02-06T15:07:38.511Z,101866.97
2023-02-06T15:10:14.138Z,101877.97
2023-02-06T15:12:52.527Z,101878.28
2023-02-06T15:15:27.363Z,101886.66
2023-02-06T15:18:03.049Z,101890.28
2023-02-06T15:20:40.288Z,101887.59
2023-02-06T15:23:32.980Z,101893.41
2023-02-06T15:26:10.263Z,101892.66
2023-02-06T15:28:40.878Z,101881.69
2023-02-06T15:31:19.077Z,101891.03
2023-02-06T15:33:51.437Z,101898.81
2023-02-06T15:36:28.544Z,101898.88
2023-02-06T15:38:58.889Z,101898.84
2023-02-06T15:41:30.994Z,101900.28
2023-02-06T15:44:03.458Z,101901.22
2023-02-06T15:46:33.043Z,101903.97
2023-02-06T15:49:01.400Z,101904.03
2023-02-06T15:51:40.191Z,101923.72
2023-02-06T15:54:24.212Z,101916.94
2023-02-06T15:57:28.812Z,101915.22
2023-02-06T16:00:00.311Z,101920.44
2023-02-06T16:02:37.393Z,101910.22
2023-02-06T16:05:07.944Z,101920.63
2023-02-06T16:07:36.551Z,101912.13
2023-02-06T16:10:23.077Z,101935.19
2023-02-06T16:12:52.893Z,101930.16
2023-02-06T16:15:36.572Z,101808.38
2023-02-06T16:18:24.085Z,101924.25
2023-02-06T16:20:52.381Z,101937.06
2023-02-06T16:23:24.572Z,101946.44
2023-02-06T16:26:15.057Z,101934.47
2023-02-06T16:28:55.490Z,101948.94
2023-02-06T16:31:26.022Z,101937.12
2023-02-06T16:34:03.335Z,101937.97
2023-02-06T16:36:33.671Z,101949.06
2023-02-06T16:39:04.432Z,101952.37
2023-02-06T16:41:36.262Z,101946.56
2023-02-06T16:44:13.153Z,101949.09
2023-02-06T16:46:42.054Z,101953.41
2023-02-06T16:49:19.016Z,101952.53
2023-02-06T16:51:49.425Z,101944.09
2023-02-06T16:54:23.559Z,101949.94
2023-02-06T16:56:53.597Z,101949.13
2023-02-06T16:59:22.409Z,101955.97
2023-02-06T17:01:50.665Z,101943.22
2023-02-06T17:04:19.086Z,101948.37
2023-02-06T17:06:48.019Z,101945.87
2023-02-06T17:09:18.211Z,101967.16
2023-02-06T17:11:46.530Z,101962.91
2023-02-06T17:14:15.242Z,101955.25
2023-02-06T17:16:43.384Z,101959.53
2023-02-06T17:19:15.161Z,101959.56
2023-02-06T17:21:43.823Z,101956.16
2023-02-06T17:24:12.068Z,101949.34
2023-02-06T17:26:40.359Z,101957.88
2023-02-06T17:29:11.007Z,101960.41
2023-02-06T17:31:42.339Z,101958.78
2023-02-06T17:34:11.092Z,101954.59
2023-02-06T17:36:40.813Z,101963.13
2023-02-06T17:39:12.623Z,101956.34
2023-02-06T17:41:41.172Z,101958.94
2023-02-06T17:44:09.331Z,101963.25
2023-02-06T17:46:38.777Z,101962.37
2023-02-06T17:49:07.358Z,101959.94
2023-02-06T17:51:35.528Z,101960.91
2023-02-06T17:54:06.248Z,101975.38
2023-02-06T17:56:37.342Z,101976.22
2023-02-06T17:59:06.156Z,101980.50
2023-02-06T18:01:35.222Z,101976.31
2023-02-06T18:04:04.077Z,101972.94
2023-02-06T18:06:36.448Z,101976.41
2023-02-06T18:09:06.252Z,101987.50
2023-02-06T18:11:35.778Z,101994.31
2023-02-06T18:14:05.180Z,101995.16
2023-02-06T18:16:34.591Z,101993.50
2023-02-06T18:19:03.438Z,101992.66
2023-02-06T18:21:31.939Z,102000.28
2023-02-06T18:24:01.219Z,101990.94
2023-02-06T18:26:29.767Z,101996.06
2023-02-06T18:28:58.908Z,101982.47
2023-02-06T18:31:31.272Z,101987.53
2023-02-06T18:34:00.432Z,101987.53
2023-02-06T18:36:30.087Z,101985.84
2023-02-06T18:38:58.729Z,101993.47
2023-02-06T18:41:46.077Z,101996.03
2023-02-06T18:44:15.397Z,101991.78
2023-02-06T18:46:44.094Z,101985.03
2023-02-06T18:49:13.065Z,101979.06
2023-02-06T18:51:42.348Z,101996.06
2023-02-06T18:54:11.260Z,101990.13
2023-02-06T18:56:40.220Z,102003.69
2023-02-06T18:59:08.918Z,102003.66
2023-02-06T19:01:37.614Z,101996.88
2023-02-06T19:04:06.530Z,101998.59
2023-02-06T19:06:36.662Z,101998.59
2023-02-06T19:09:07.252Z,101995.19
2023-02-06T19:11:41.098Z,102007.06
2023-02-06T19:14:15.236Z,102010.47
2023-02-06T19:16:47.489Z,102011.31
2023-02-06T19:19:18.005Z,102014.72
2023-02-06T19:21:49.044Z,102025.69
2023-02-06T19:24:18.900Z,102025.69
2023-02-06T19:26:47.649Z,102024.00
2023-02-06T19:29:34.386Z,102028.25
2023-02-06T19:32:06.853Z,102036.75
2023-02-06T19:34:38.516Z,102035.03
2023-02-06T19:37:09.608Z,102049.47
2023-02-06T19:39:40.465Z,102046.06
2023-02-06T19:42:11.014Z,102046.09
2023-02-06T19:44:39.616Z,102036.78
2023-02-06T19:47:08.202Z,102052.03
2023-02-06T19:49:37.890Z,102042.66
2023-02-06T19:52:06.375Z,102059.56
2023-02-06T19:54:34.948Z,102059.59
2023-02-06T19:57:03.686Z,102060.44
2023-02-06T19:59:32.396Z,102064.69
2023-02-06T20:02:02.786Z,102075.69
2023-02-06T20:04:36.598Z,102068.88
2023-02-06T20:07:05.192Z,102074.69
2023-02-06T20:09:33.656Z,102071.38
2023-02-06T20:12:02.452Z,102077.31
2023-02-06T20:14:31.600Z,102082.41
2023-02-06T20:17:00.595Z,102090.91
2023-02-06T20:19:29.896Z,102094.25
2023-02-06T20:22:00.478Z,102096.66
2023-02-06T20:24:32.518Z,102095.88
2023-02-06T20:27:06.120Z,102095.91
2023-02-06T20:29:40.179Z,102089.09
2023-02-06T20:32:11.330Z,102095.06
2023-02-06T20:34:40.226Z,102099.13
2023-02-06T20:37:09.940Z,102083.81
2023-02-06T20:39:40.323Z,102094.78
2023-02-06T20:42:09.464Z,102101.66
2023-02-06T20:44:37.912Z,102104.28
2023-02-06T20:47:06.567Z,102101.78
2023-02-06T20:49:36.362Z,102092.38
2023-02-06T20:52:06.411Z,102094.84
2023-02-06T20:54:34.848Z,102087.22
2023-02-06T20:57:03.206Z,102093.28
2023-02-06T20:59:33.027Z,102099.19
2023-02-06T21:02:02.525Z,102109.34
2023-02-06T21:04:33.591Z,102110.09
2023-02-06T21:07:02.708Z,102104.94
2023-02-06T21:09:31.354Z,102115.03
2023-02-06T21:12:00.333Z,102121.81
2023-02-06T21:14:30.091Z,102116.72
2023-02-06T21:16:58.523Z,102125.25
2023-02-06T21:19:28.832Z,102120.91
2023-02-06T21:21:57.551Z,102136.16
2023-02-06T21:24:25.818Z,102126.06
2023-02-06T21:26:54.221Z,102125.91
2023-02-06T21:29:25.594Z,102114.91
2023-02-06T21:32:07.168Z,102123.38
2023-02-06T21:34:41.605Z,102120.81
2023-02-06T21:37:09.908Z,102118.34
2023-02-06T21:39:40.944Z,102139.69
2023-02-06T21:42:11.651Z,102135.59
2023-02-06T21:44:39.799Z,102122.88
2023-02-06T21:47:10.022Z,102131.31
2023-02-06T21:49:39.109Z,102129.50
2023-02-06T21:52:07.354Z,102120.97
2023-02-06T21:54:35.490Z,102118.44
2023-02-06T21:57:04.441Z,102127.59
2023-02-06T21:59:34.215Z,102125.06
2023-02-06T22:02:02.682Z,102124.25
2023-02-06T22:04:31.228Z,102137.78
2023-02-06T22:06:59.353Z,102131.75
2023-02-06T22:09:27.749Z,102135.03
2023-02-06T22:11:57.009Z,102142.72
2023-02-06T22:14:25.124Z,102137.75
2023-02-06T22:16:53.438Z,102140.31
2023-02-06T22:19:22.164Z,102131.69
2023-02-06T22:21:50.437Z,102137.59
2023-02-06T22:24:19.086Z,102138.31
2023-02-06T22:26:47.893Z,102141.63
2023-02-06T22:29:17.334Z,102137.59
2023-02-06T22:31:45.802Z,102141.94
2023-02-06T22:34:18.729Z,102140.19
2023-02-06T22:36:48.077Z,102144.16
2023-02-06T22:39:17.725Z,102149.09
2023-02-06T22:41:47.331Z,102139.97
2023-02-06T22:44:17.187Z,102138.41
2023-02-06T22:46:48.907Z,102139.38
2023-02-06T22:49:18.829Z,102134.22
2023-02-06T22:51:47.663Z,102134.78
2023-02-06T22:54:16.676Z,102141.56
2023-02-06T22:56:45.607Z,102149.97
2023-02-06T22:59:19.816Z,102145.53
2023-02-06T23:01:54.963Z,102140.41
2023-02-06T23:04:28.769Z,102147.31
2023-02-06T23:06:57.306Z,102148.16
2023-02-06T23:09:31.611Z,102139.81
2023-02-06T23:12:01.082Z,102146.62
2023-02-06T23:14:31.073Z,102150.94
2023-02-06T23:17:00.879Z,102148.41
2023-02-06T23:19:29.805Z,102165.22
2023-02-06T23:21:58.337Z,102158.25
2023-02-06T23:24:26.874Z,102162.50
2023-02-06T23:26:55.031Z,102149.97
2023-02-06T23:29:23.993Z,102161.75
2023-02-06T23:31:52.319Z,102162.66
2023-02-06T23:34:23.827Z,102161.31
2023-02-06T23:36:53.026Z,102156.03
2023-02-06T23:39:21.894Z,102162.56
2023-02-06T23:41:50.217Z,102144.03
2023-02-06T23:44:19.150Z,102154.09
2023-02-06T23:46:47.927Z,102157.38
2023-02-06T23:49:16.540Z,102144.47
2023-02-06T23:51:45.131Z,102147.03
2023-02-06T23:54:13.415Z,102150.34
2023-02-06T23:56:41.594Z,102163.16
2023-02-06T23:59:10.626Z,102162.13
